sensor_id;sensor_type;location;lat;lon;timestamp;pressure;altitude;pressure_sealevel;temperature;humidity
60337;BME280;46978;50.288;28.624;2023-01-01T00:00:37;99361.25;;;7.70;86.93
60337;BME280;46978;50.288;28.624;2023-01-01T00:01:43;99354.36;;;7.69;86.94
60337;BME280;46978;50.288;28.624;2023-01-01T00:02:45;99356.95;;;7.68;86.99
60337;BME280;46978;50.288;28.624;2023-01-01T00:03:50;99366.44;;;7.67;87.07
60337;BME280;46978;50.288;28.624;2023-01-01T00:04:52;99360.42;;;7.67;87.13
60337;BME280;46978;50.288;28.624;2023-01-01T00:05:54;99363.88;;;7.64;87.27
60337;BME280;46978;50.288;28.624;2023-01-01T00:06:55;99360.44;;;7.64;87.38
60337;BME280;46978;50.288;28.624;2023-01-01T00:07:57;99363.02;;;7.64;87.45
60337;BME280;46978;50.288;28.624;2023-01-01T00:08:58;99357.84;;;7.65;87.44
60337;BME280;46978;50.288;28.624;2023-01-01T00:10:00;99362.13;;;7.66;87.45
60337;BME280;46978;50.288;28.624;2023-01-01T00:11:03;99355.25;;;7.67;87.45
60337;BME280;46978;50.288;28.624;2023-01-01T00:12:06;99357.84;;;7.67;87.47
60337;BME280;46978;50.288;28.624;2023-01-01T00:13:10;99355.25;;;7.67;87.46
60337;BME280;46978;50.288;28.624;2023-01-01T00:14:11;99356.10;;;7.67;87.51
60337;BME280;46978;50.288;28.624;2023-01-01T00:15:13;99355.25;;;7.67;87.54
60337;BME280;46978;50.288;28.624;2023-01-01T00:16:16;99345.77;;;7.69;87.55
60337;BME280;46978;50.288;28.624;2023-01-01T00:17:17;99351.78;;;7.69;87.58
60337;BME280;46978;50.288;28.624;2023-01-01T00:18:19;99346.61;;;7.69;87.55
60337;BME280;46978;50.288;28.624;2023-01-01T00:19:21;99344.91;;;7.70;87.54
60337;BME280;46978;50.288;28.624;2023-01-01T00:20:23;99350.93;;;7.69;87.57
60337;BME280;46978;50.288;28.624;2023-01-01T00:21:24;99344.91;;;7.70;87.54
60337;BME280;46978;50.288;28.624;2023-01-01T00:22:46;99356.08;;;7.70;87.59
60337;BME280;46978;50.288;28.624;2023-01-01T00:23:48;99353.48;;;7.72;87.65
60337;BME280;46978;50.288;28.624;2023-01-01T00:24:49;99352.64;;;7.73;87.67
60337;BME280;46978;50.288;28.624;2023-01-01T00:25:51;99356.91;;;7.74;87.64
60337;BME280;46978;50.288;28.624;2023-01-01T00:26:53;99358.64;;;7.75;87.63
60337;BME280;46978;50.288;28.624;2023-01-01T00:27:55;99358.63;;;7.77;87.58
60337;BME280;46978;50.288;28.624;2023-01-01T00:28:56;99365.53;;;7.76;87.59
60337;BME280;46978;50.288;28.624;2023-01-01T00:29:58;99368.11;;;7.76;87.59
60337;BME280;46978;50.288;28.624;2023-01-01T00:31:08;99374.13;;;7.77;87.64
60337;BME280;46978;50.288;28.624;2023-01-01T00:32:11;99370.69;;;7.76;87.69
60337;BME280;46978;50.288;28.624;2023-01-01T00:33:12;99368.10;;;7.78;87.68
60337;BME280;46978;50.288;28.624;2023-01-01T00:34:14;99367.22;;;7.77;87.74
60337;BME280;46978;50.288;28.624;2023-01-01T00:35:16;99363.79;;;7.77;87.76
60337;BME280;46978;50.288;28.624;2023-01-01T00:36:19;99375.84;;;7.78;87.81
60337;BME280;46978;50.288;28.624;2023-01-01T00:37:21;99372.38;;;7.79;87.83
60337;BME280;46978;50.288;28.624;2023-01-01T00:38:23;99374.96;;;7.79;87.89
60337;BME280;46978;50.288;28.624;2023-01-01T00:39:25;99371.52;;;7.80;87.90
60337;BME280;46978;50.288;28.624;2023-01-01T00:40:26;99368.92;;;7.81;87.93
60337;BME280;46978;50.288;28.624;2023-01-01T00:41:28;99369.77;;;7.82;87.90
60337;BME280;46978;50.288;28.624;2023-01-01T00:42:30;99368.06;;;7.84;87.82
60337;BME280;46978;50.288;28.624;2023-01-01T00:43:32;99369.75;;;7.85;87.79
60337;BME280;46978;50.288;28.624;2023-01-01T00:44:34;99364.59;;;7.85;87.81
60337;BME280;46978;50.288;28.624;2023-01-01T00:45:36;99356.84;;;7.83;87.83
60337;BME280;46978;50.288;28.624;2023-01-01T00:46:38;99362.89;;;7.84;87.89
60337;BME280;46978;50.288;28.624;2023-01-01T00:47:40;99364.59;;;7.85;87.94
60337;BME280;46978;50.288;28.624;2023-01-01T00:48:41;99369.75;;;7.85;87.96
60337;BME280;46978;50.288;28.624;2023-01-01T00:49:43;99373.22;;;7.85;87.95
60337;BME280;46978;50.288;28.624;2023-01-01T00:50:46;99360.30;;;7.85;87.96
60337;BME280;46978;50.288;28.624;2023-01-01T00:51:48;99361.14;;;7.86;88.01
60337;BME280;46978;50.288;28.624;2023-01-01T00:52:50;99365.45;;;7.87;88.00
60337;BME280;46978;50.288;28.624;2023-01-01T00:53:51;99360.27;;;7.88;87.98
60337;BME280;46978;50.288;28.624;2023-01-01T00:54:53;99369.72;;;7.89;88.04
60337;BME280;46978;50.288;28.624;2023-01-01T00:55:55;99358.52;;;7.92;88.02
60337;BME280;46978;50.288;28.624;2023-01-01T00:56:57;99361.10;;;7.92;88.00
60337;BME280;46978;50.288;28.624;2023-01-01T00:57:59;99363.67;;;7.94;88.00
60337;BME280;46978;50.288;28.624;2023-01-01T00:59:01;99373.12;;;7.95;87.96
60337;BME280;46978;50.288;28.624;2023-01-01T01:00:04;99366.25;;;7.95;87.94
60337;BME280;46978;50.288;28.624;2023-01-01T01:01:06;99373.11;;;7.96;87.92
60337;BME280;46978;50.288;28.624;2023-01-01T01:02:07;99365.34;;;7.98;87.90
60337;BME280;46978;50.288;28.624;2023-01-01T01:03:10;99367.06;;;7.99;87.87
60337;BME280;46978;50.288;28.624;2023-01-01T01:04:12;99375.67;;;7.99;87.86
60337;BME280;46978;50.288;28.624;2023-01-01T01:05:14;99369.66;;;7.99;87.82
60337;BME280;46978;50.288;28.624;2023-01-01T01:06:20;99365.33;;;7.99;87.86
60337;BME280;46978;50.288;28.624;2023-01-01T01:07:22;99361.89;;;8.00;87.92
60337;BME280;46978;50.288;28.624;2023-01-01T01:08:25;99362.73;;;8.01;87.88
60337;BME280;46978;50.288;28.624;2023-01-01T01:09:27;99367.89;;;8.02;87.88
60337;BME280;46978;50.288;28.624;2023-01-01T01:10:29;99359.30;;;8.02;87.81
60337;BME280;46978;50.288;28.624;2023-01-01T01:11:33;99367.88;;;8.04;87.80
60337;BME280;46978;50.288;28.624;2023-01-01T01:12:54;99365.28;;;8.05;87.78
60337;BME280;46978;50.288;28.624;2023-01-01T01:13:56;99362.70;;;8.05;87.82
60337;BME280;46978;50.288;28.624;2023-01-01T01:14:58;99372.19;;;8.05;87.91
60337;BME280;46978;50.288;28.624;2023-01-01T01:16:00;99367.87;;;8.05;87.92
60337;BME280;46978;50.288;28.624;2023-01-01T01:17:01;99367.00;;;8.08;87.99
60337;BME280;46978;50.288;28.624;2023-01-01T01:18:03;99363.57;;;8.07;87.97
60337;BME280;46978;50.288;28.624;2023-01-01T01:19:05;99359.25;;;8.08;87.97
60337;BME280;46978;50.288;28.624;2023-01-01T01:20:14;99359.23;;;8.10;87.97
60337;BME280;46978;50.288;28.624;2023-01-01T01:22:45;99350.55;;;8.20;88.07
60337;BME280;46978;50.288;28.624;2023-01-01T01:23:47;99344.57;;;8.10;88.04
60337;BME280;46978;50.288;28.624;2023-01-01T01:24:49;99340.28;;;8.11;88.09
60337;BME280;46978;50.288;28.624;2023-01-01T01:25:51;99340.28;;;8.11;88.11
60337;BME280;46978;50.288;28.624;2023-01-01T01:26:53;99344.56;;;8.12;88.13
60337;BME280;46978;50.288;28.624;2023-01-01T01:27:55;99348.88;;;8.13;88.09
60337;BME280;46978;50.288;28.624;2023-01-01T01:28:57;99345.42;;;8.14;88.10
60337;BME280;46978;50.288;28.624;2023-01-01T01:29:59;99356.59;;;8.16;88.03
60337;BME280;46978;50.288;28.624;2023-01-01T01:31:01;99353.16;;;8.17;87.96
60337;BME280;46978;50.288;28.624;2023-01-01T01:32:03;99357.44;;;8.18;87.94
60337;BME280;46978;50.288;28.624;2023-01-01T01:33:05;99363.48;;;8.18;87.88
60337;BME280;46978;50.288;28.624;2023-01-01T01:34:07;99356.57;;;8.19;87.89
60337;BME280;46978;50.288;28.624;2023-01-01T01:35:08;99362.59;;;8.19;87.92
60337;BME280;46978;50.288;28.624;2023-01-01T01:36:12;99362.59;;;8.19;87.90
60337;BME280;46978;50.288;28.624;2023-01-01T01:37:14;99354.82;;;8.21;87.87
60337;BME280;46978;50.288;28.624;2023-01-01T01:38:16;99359.98;;;8.22;87.86
60337;BME280;46978;50.288;28.624;2023-01-01T01:39:18;99361.70;;;8.23;87.84
60337;BME280;46978;50.288;28.624;2023-01-01T01:40:20;99353.95;;;8.23;87.80
60337;BME280;46978;50.288;28.624;2023-01-01T01:41:23;99347.04;;;8.24;87.81
60337;BME280;46978;50.288;28.624;2023-01-01T01:42:26;99361.67;;;8.26;87.75
60337;BME280;46978;50.288;28.624;2023-01-01T01:45:48;99364.25;;;8.28;87.74
60337;BME280;46978;50.288;28.624;2023-01-01T01:46:50;99359.08;;;8.28;87.71
60337;BME280;46978;50.288;28.624;2023-01-01T01:47:54;99365.09;;;8.29;87.77
60337;BME280;46978;50.288;28.624;2023-01-01T01:49:03;99361.65;;;8.30;87.77
60337;BME280;46978;50.288;28.624;2023-01-01T01:50:21;99355.66;;;8.26;87.72
60337;BME280;46978;50.288;28.624;2023-01-01T01:51:23;99360.80;;;8.29;87.75
60337;BME280;46978;50.288;28.624;2023-01-01T01:52:26;99353.87;;;8.31;87.78
60337;BME280;46978;50.288;28.624;2023-01-01T01:53:30;99356.45;;;8.33;87.68
60337;BME280;46978;50.288;28.624;2023-01-01T01:54:33;99352.13;;;8.33;87.66
60337;BME280;46978;50.288;28.624;2023-01-01T01:55:38;99353.00;;;8.34;87.62
60337;BME280;46978;50.288;28.624;2023-01-01T01:56:44;99352.09;;;8.36;87.61
60337;BME280;46978;50.288;28.624;2023-01-01T01:57:45;99346.92;;;8.36;87.56
60337;BME280;46978;50.288;28.624;2023-01-01T01:58:47;99346.06;;;8.37;87.54
60337;BME280;46978;50.288;28.624;2023-01-01T01:59:51;99346.91;;;8.38;87.52
60337;BME280;46978;50.288;28.624;2023-01-01T02:00:54;99349.50;;;8.38;87.56
60337;BME280;46978;50.288;28.624;2023-01-01T02:01:57;99344.33;;;8.38;87.56
60337;BME280;46978;50.288;28.624;2023-01-01T02:04:11;99353.80;;;8.40;87.58
60337;BME280;46978;50.288;28.624;2023-01-01T02:05:13;99354.64;;;8.41;87.54
60337;BME280;46978;50.288;28.624;2023-01-01T02:06:18;99358.95;;;8.42;87.51
60337;BME280;46978;50.288;28.624;2023-01-01T02:07:21;99357.21;;;8.42;87.52
60337;BME280;46978;50.288;28.624;2023-01-01T02:08:24;99352.04;;;8.42;87.51
60337;BME280;46978;50.288;28.624;2023-01-01T02:09:26;99347.77;;;8.41;87.53
60337;BME280;46978;50.288;28.624;2023-01-01T02:10:28;99339.11;;;8.42;87.52
60337;BME280;46978;50.288;28.624;2023-01-01T02:11:30;99346.02;;;8.42;87.60
60337;BME280;46978;50.288;28.624;2023-01-01T02:12:32;99348.61;;;8.42;87.55
60337;BME280;46978;50.288;28.624;2023-01-01T02:13:33;99343.45;;;8.43;87.50
60337;BME280;46978;50.288;28.624;2023-01-01T02:14:35;99343.45;;;8.43;87.50
60337;BME280;46978;50.288;28.624;2023-01-01T02:15:41;99336.52;;;8.42;87.57
60337;BME280;46978;50.288;28.624;2023-01-01T02:16:46;99339.11;;;8.42;87.58
60337;BME280;46978;50.288;28.624;2023-01-01T02:18:00;99346.88;;;8.42;87.54
60337;BME280;46978;50.288;28.624;2023-01-01T02:19:07;99345.17;;;8.41;87.54
60337;BME280;46978;50.288;28.624;2023-01-01T02:20:19;99347.77;;;8.41;87.58
60337;BME280;46978;50.288;28.624;2023-01-01T02:25:34;99342.63;;;8.37;87.90
60337;BME280;46978;50.288;28.624;2023-01-01T02:26:43;99344.34;;;8.36;87.99
60337;BME280;46978;50.288;28.624;2023-01-01T02:27:51;99340.91;;;8.36;88.00
60337;BME280;46978;50.288;28.624;2023-01-01T02:29:04;99335.73;;;8.36;88.07
60337;BME280;46978;50.288;28.624;2023-01-01T02:30:08;99338.31;;;8.37;88.08
60337;BME280;46978;50.288;28.624;2023-01-01T02:31:13;99338.31;;;8.37;88.15
60337;BME280;46978;50.288;28.624;2023-01-01T02:33:44;99336.57;;;8.38;88.07
60337;BME280;46978;50.288;28.624;2023-01-01T02:34:58;99336.57;;;8.38;88.14
60337;BME280;46978;50.288;28.624;2023-01-01T02:36:02;99340.03;;;8.38;88.19
60337;BME280;46978;50.288;28.624;2023-01-01T02:37:07;99332.28;;;8.38;88.17
60337;BME280;46978;50.288;28.624;2023-01-01T02:39:24;99331.41;;;8.36;88.26
60337;BME280;46978;50.288;28.624;2023-01-01T02:40:27;99332.30;;;8.37;88.35
60337;BME280;46978;50.288;28.624;2023-01-01T02:41:42;99329.70;;;8.37;88.36
60337;BME280;46978;50.288;28.624;2023-01-01T02:42:44;99338.31;;;8.37;88.43
60337;BME280;46978;50.288;28.624;2023-01-01T02:43:46;99348.66;;;8.37;88.42
60337;BME280;46978;50.288;28.624;2023-01-01T02:44:49;99342.63;;;8.37;88.48
60337;BME280;46978;50.288;28.624;2023-01-01T02:45:53;99338.31;;;8.37;88.51
60337;BME280;46978;50.288;28.624;2023-01-01T02:46:55;99340.88;;;8.39;88.53
60337;BME280;46978;50.288;28.624;2023-01-01T02:48:01;99340.87;;;8.40;88.53
60337;BME280;46978;50.288;28.624;2023-01-01T02:49:01;99346.88;;;8.41;88.46
60337;BME280;46978;50.288;28.624;2023-01-01T02:50:24;99346.03;;;8.40;88.41
60337;BME280;46978;50.288;28.624;2023-01-01T02:52:06;99344.31;;;8.39;88.38
60337;BME280;46978;50.288;28.624;2023-01-01T02:53:21;99348.64;;;8.39;88.45
60337;BME280;46978;50.288;28.624;2023-01-01T02:54:32;99338.31;;;8.37;88.49
60337;BME280;46978;50.288;28.624;2023-01-01T02:55:54;99340.92;;;8.34;88.55
60337;BME280;46978;50.288;28.624;2023-01-01T02:57:03;99332.35;;;8.31;88.74
60337;BME280;46978;50.288;28.624;2023-01-01T03:01:08;99327.20;;;8.28;89.06
60337;BME280;46978;50.288;28.624;2023-01-01T03:02:47;99339.28;;;8.24;89.09
60337;BME280;46978;50.288;28.624;2023-01-01T03:04:00;99336.71;;;8.22;89.21
60337;BME280;46978;50.288;28.624;2023-01-01T03:06:25;99334.19;;;8.16;89.75
60337;BME280;46978;50.288;28.624;2023-01-01T03:11:04;99327.38;;;8.09;90.01
60337;BME280;46978;50.288;28.624;2023-01-01T03:11:23;99337.72;;;8.07;90.12
60337;BME280;46978;50.288;28.624;2023-01-01T03:12:38;99334.27;;;8.05;90.35
60337;BME280;46978;50.288;28.624;2023-01-01T03:14:18;99336.02;;;8.05;90.50
60337;BME280;46978;50.288;28.624;2023-01-01T03:15:27;99349.80;;;8.04;90.53
60337;BME280;46978;50.288;28.624;2023-01-01T03:16:44;99353.27;;;8.03;90.59
60337;BME280;46978;50.288;28.624;2023-01-01T03:19:19;99350.70;;;8.00;90.91
60337;BME280;46978;50.288;28.624;2023-01-01T03:20:26;99358.47;;;7.98;90.86
60337;BME280;46978;50.288;28.624;2023-01-01T03:21:28;99347.28;;;7.95;90.98
60337;BME280;46978;50.288;28.624;2023-01-01T03:22:32;99356.75;;;7.96;91.42
60337;BME280;46978;50.288;28.624;2023-01-01T03:23:37;99350.74;;;7.95;91.42
60337;BME280;46978;50.288;28.624;2023-01-01T03:26:07;99351.59;;;7.94;91.35
60337;BME280;46978;50.288;28.624;2023-01-01T03:28:24;99363.69;;;7.92;91.61
60337;BME280;46978;50.288;28.624;2023-01-01T03:29:24;99367.97;;;7.92;91.45
60337;BME280;46978;50.288;28.624;2023-01-01T03:30:30;99362.84;;;7.90;91.58
60337;BME280;46978;50.288;28.624;2023-01-01T03:31:33;99373.19;;;7.90;91.86
60337;BME280;46978;50.288;28.624;2023-01-01T03:32:42;99366.29;;;7.89;91.69
60337;BME280;46978;50.288;28.624;2023-01-01T03:33:50;99375.78;;;7.88;91.73
60337;BME280;46978;50.288;28.624;2023-01-01T03:34:53;99375.80;;;7.85;91.68
60337;BME280;46978;50.288;28.624;2023-01-01T03:36:06;99373.22;;;7.85;91.89
60337;BME280;46978;50.288;28.624;2023-01-01T03:37:11;99381.81;;;7.86;92.14
60337;BME280;46978;50.288;28.624;2023-01-01T03:38:29;99380.97;;;7.85;91.94
60337;BME280;46978;50.288;28.624;2023-01-01T03:39:50;99382.68;;;7.83;91.84
60337;BME280;46978;50.288;28.624;2023-01-01T03:40:56;99380.11;;;7.82;92.34
60337;BME280;46978;50.288;28.624;2023-01-01T03:43:13;99384.42;;;7.81;92.16
60337;BME280;46978;50.288;28.624;2023-01-01T03:44:20;99380.12;;;7.79;92.17
60337;BME280;46978;50.288;28.624;2023-01-01T03:45:29;99378.44;;;7.78;92.26
60337;BME280;46978;50.288;28.624;2023-01-01T03:46:34;99384.45;;;7.77;92.33
60337;BME280;46978;50.288;28.624;2023-01-01T03:47:36;99381.88;;;7.75;92.46
60337;BME280;46978;50.288;28.624;2023-01-01T03:48:38;99370.71;;;7.73;92.53
60337;BME280;46978;50.288;28.624;2023-01-01T03:49:41;99374.16;;;7.72;92.72
60337;BME280;46978;50.288;28.624;2023-01-01T03:50:56;99372.42;;;7.71;92.88
60337;BME280;46978;50.288;28.624;2023-01-01T03:52:00;99369.00;;;7.70;92.98
60337;BME280;46978;50.288;28.624;2023-01-01T03:53:09;99370.72;;;7.71;92.91
60337;BME280;46978;50.288;28.624;2023-01-01T03:55:44;99376.75;;;7.70;93.02
60337;BME280;46978;50.288;28.624;2023-01-01T03:56:51;99370.73;;;7.70;93.05
60337;BME280;46978;50.288;28.624;2023-01-01T04:00:26;99379.36;;;7.66;93.22
60337;BME280;46978;50.288;28.624;2023-01-01T04:01:26;99374.19;;;7.66;93.21
60337;BME280;46978;50.288;28.624;2023-01-01T04:02:35;99383.67;;;7.65;93.39
60337;BME280;46978;50.288;28.624;2023-01-01T04:03:37;99374.20;;;7.64;93.30
60337;BME280;46978;50.288;28.624;2023-01-01T04:04:41;99373.36;;;7.62;93.35
60337;BME280;46978;50.288;28.624;2023-01-01T04:05:43;99373.36;;;7.62;93.35
60337;BME280;46978;50.288;28.624;2023-01-01T04:06:46;99381.13;;;7.59;93.58
60337;BME280;46978;50.288;28.624;2023-01-01T04:07:49;99378.54;;;7.61;93.82
60337;BME280;46978;50.288;28.624;2023-01-01T04:08:52;99375.95;;;7.61;93.75
60337;BME280;46978;50.288;28.624;2023-01-01T04:09:58;99376.81;;;7.60;93.78
60337;BME280;46978;50.288;28.624;2023-01-01T04:11:05;99378.55;;;7.59;93.86
60337;BME280;46978;50.288;28.624;2023-01-01T04:12:07;99381.98;;;7.60;94.02
60337;BME280;46978;50.288;28.624;2023-01-01T04:13:10;99385.41;;;7.59;93.98
60337;BME280;46978;50.288;28.624;2023-01-01T04:14:11;99386.30;;;7.59;93.93
60337;BME280;46978;50.288;28.624;2023-01-01T04:15:18;99388.00;;;7.59;93.86
60337;BME280;46978;50.288;28.624;2023-01-01T04:16:17;99383.71;;;7.59;94.14
60337;BME280;46978;50.288;28.624;2023-01-01T04:17:19;99395.74;;;7.59;94.11
60337;BME280;46978;50.288;28.624;2023-01-01T04:18:40;99396.63;;;7.59;93.99
60337;BME280;46978;50.288;28.624;2023-01-01T04:19:42;99401.79;;;7.59;94.02
60337;BME280;46978;50.288;28.624;2023-01-01T04:20:44;99394.05;;;7.58;94.10
60337;BME280;46978;50.288;28.624;2023-01-01T04:21:46;99396.63;;;7.58;94.03
60337;BME280;46978;50.288;28.624;2023-01-01T04:22:48;99406.96;;;7.58;93.99
60337;BME280;46978;50.288;28.624;2023-01-01T04:23:49;99402.66;;;7.55;94.01
60337;BME280;46978;50.288;28.624;2023-01-01T04:24:51;99399.23;;;7.54;93.97
60337;BME280;46978;50.288;28.624;2023-01-01T04:25:53;99405.25;;;7.53;94.14
60337;BME280;46978;50.288;28.624;2023-01-01T04:26:55;99402.67;;;7.53;94.41
60337;BME280;46978;50.288;28.624;2023-01-01T04:27:57;99393.19;;;7.52;94.48
60337;BME280;46978;50.288;28.624;2023-01-01T04:28:59;99406.09;;;7.54;94.43
60337;BME280;46978;50.288;28.624;2023-01-01T04:30:01;99409.56;;;7.53;94.30
60337;BME280;46978;50.288;28.624;2023-01-01T04:31:03;99405.25;;;7.52;94.38
60337;BME280;46978;50.288;28.624;2023-01-01T04:32:05;99412.16;;;7.51;94.48
60337;BME280;46978;50.288;28.624;2023-01-01T04:33:06;99401.83;;;7.51;94.49
60337;BME280;46978;50.288;28.624;2023-01-01T04:34:08;99408.70;;;7.51;94.48
60337;BME280;46978;50.288;28.624;2023-01-01T04:35:12;99411.28;;;7.49;94.48
60337;BME280;46978;50.288;28.624;2023-01-01T04:36:14;99408.70;;;7.48;94.48
60337;BME280;46978;50.288;28.624;2023-01-01T04:37:16;99407.87;;;7.46;94.47
60337;BME280;46978;50.288;28.624;2023-01-01T04:38:18;99407.87;;;7.46;94.47
60337;BME280;46978;50.288;28.624;2023-01-01T04:39:19;99407.03;;;7.44;94.62
60337;BME280;46978;50.288;28.624;2023-01-01T04:40:22;99402.72;;;7.43;94.61
60337;BME280;46978;50.288;28.624;2023-01-01T04:41:23;99401.88;;;7.41;94.83
60337;BME280;46978;50.288;28.624;2023-01-01T04:42:25;99407.05;;;7.39;94.95
60337;BME280;46978;50.288;28.624;2023-01-01T04:43:28;99407.91;;;7.38;94.92
60337;BME280;46978;50.288;28.624;2023-01-01T04:44:30;99410.49;;;7.36;95.05
60337;BME280;46978;50.288;28.624;2023-01-01T04:45:31;99402.75;;;7.36;95.11
60337;BME280;46978;50.288;28.624;2023-01-01T04:46:33;99402.75;;;7.35;95.06
60337;BME280;46978;50.288;28.624;2023-01-01T04:47:34;99404.48;;;7.34;95.15
60337;BME280;46978;50.288;28.624;2023-01-01T04:48:36;99402.76;;;7.33;95.36
60337;BME280;46978;50.288;28.624;2023-01-01T04:49:38;99401.91;;;7.33;95.39
60337;BME280;46978;50.288;28.624;2023-01-01T04:50:40;99399.34;;;7.31;95.57
60337;BME280;46978;50.288;28.624;2023-01-01T04:51:42;99395.88;;;7.32;95.77
60337;BME280;46978;50.288;28.624;2023-01-01T04:52:44;99402.77;;;7.32;95.59
60337;BME280;46978;50.288;28.624;2023-01-01T04:53:47;99396.76;;;7.31;95.77
60337;BME280;46978;50.288;28.624;2023-01-01T04:54:49;99393.30;;;7.31;95.73
60337;BME280;46978;50.288;28.624;2023-01-01T04:55:51;99394.19;;;7.30;95.49
60337;BME280;46978;50.288;28.624;2023-01-01T04:56:53;99396.77;;;7.28;95.45
60337;BME280;46978;50.288;28.624;2023-01-01T04:57:54;99383.87;;;7.25;95.64
60337;BME280;46978;50.288;28.624;2023-01-01T04:58:56;99389.89;;;7.24;95.91
60337;BME280;46978;50.288;28.624;2023-01-01T04:59:58;99391.63;;;7.24;95.91
60337;BME280;46978;50.288;28.624;2023-01-01T05:01:00;99388.17;;;7.22;95.94
60337;BME280;46978;50.288;28.624;2023-01-01T05:02:02;99391.64;;;7.21;95.97
60337;BME280;46978;50.288;28.624;2023-01-01T05:03:04;99384.75;;;7.20;96.21
60337;BME280;46978;50.288;28.624;2023-01-01T05:04:05;99384.76;;;7.18;96.51
60337;BME280;46978;50.288;28.624;2023-01-01T05:05:08;99392.50;;;7.16;96.35
60337;BME280;46978;50.288;28.624;2023-01-01T05:06:11;99392.52;;;7.15;96.26
60337;BME280;46978;50.288;28.624;2023-01-01T05:07:13;99398.53;;;7.12;96.14
60337;BME280;46978;50.288;28.624;2023-01-01T05:08:15;99398.53;;;7.12;96.14
60337;BME280;46978;50.288;28.624;2023-01-01T05:09:17;99395.95;;;7.11;96.68
60337;BME280;46978;50.288;28.624;2023-01-01T05:10:19;99398.53;;;7.11;96.88
60337;BME280;46978;50.288;28.624;2023-01-01T05:11:26;99393.38;;;7.11;96.75
60337;BME280;46978;50.288;28.624;2023-01-01T05:12:28;99397.69;;;7.10;96.80
60337;BME280;46978;50.288;28.624;2023-01-01T05:13:30;99398.55;;;7.09;96.91
60337;BME280;46978;50.288;28.624;2023-01-01T05:14:32;99388.23;;;7.08;97.05
60337;BME280;46978;50.288;28.624;2023-01-01T05:15:35;99401.13;;;7.08;96.98
60337;BME280;46978;50.288;28.624;2023-01-01T05:16:38;99406.28;;;7.09;97.35
60337;BME280;46978;50.288;28.624;2023-01-01T05:17:40;99395.12;;;7.07;97.14
60337;BME280;46978;50.288;28.624;2023-01-01T05:18:42;99398.55;;;7.06;97.00
60337;BME280;46978;50.288;28.624;2023-01-01T05:19:44;99402.02;;;7.05;97.02
60337;BME280;46978;50.288;28.624;2023-01-01T05:20:46;99407.19;;;7.04;97.01
60337;BME280;46978;50.288;28.624;2023-01-01T05:21:48;99403.73;;;7.02;97.13
60337;BME280;46978;50.288;28.624;2023-01-01T05:22:49;99402.88;;;6.99;97.23
60337;BME280;46978;50.288;28.624;2023-01-01T05:23:56;99396.00;;;6.98;97.27
60337;BME280;46978;50.288;28.624;2023-01-01T05:24:58;99391.72;;;6.99;97.57
60337;BME280;46978;50.288;28.624;2023-01-01T05:25:59;99399.45;;;6.99;97.64
60337;BME280;46978;50.288;28.624;2023-01-01T05:27:03;99409.77;;;6.99;97.76
60337;BME280;46978;50.288;28.624;2023-01-01T05:28:05;99395.16;;;6.96;97.67
60337;BME280;46978;50.288;28.624;2023-01-01T05:29:07;99397.73;;;6.96;97.66
60337;BME280;46978;50.288;28.624;2023-01-01T05:30:10;99401.16;;;6.97;97.75
60337;BME280;46978;50.288;28.624;2023-01-01T05:31:15;99402.05;;;6.96;97.63
60337;BME280;46978;50.288;28.624;2023-01-01T05:32:17;99402.05;;;6.94;97.49
60337;BME280;46978;50.288;28.624;2023-01-01T05:33:19;99403.75;;;6.92;97.72
60337;BME280;46978;50.288;28.624;2023-01-01T05:34:20;99398.59;;;6.92;97.95
60337;BME280;46978;50.288;28.624;2023-01-01T05:35:22;99406.33;;;6.92;97.88
60337;BME280;46978;50.288;28.624;2023-01-01T05:36:27;99402.06;;;6.90;97.83
60337;BME280;46978;50.288;28.624;2023-01-01T05:37:29;99406.34;;;6.89;97.98
60337;BME280;46978;50.288;28.624;2023-01-01T05:38:30;99410.65;;;6.89;98.36
60337;BME280;46978;50.288;28.624;2023-01-01T05:39:32;99408.92;;;6.89;98.34
60337;BME280;46978;50.288;28.624;2023-01-01T05:40:36;99407.22;;;6.90;98.30
60337;BME280;46978;50.288;28.624;2023-01-01T05:41:38;99407.22;;;6.88;98.30
60337;BME280;46978;50.288;28.624;2023-01-01T05:42:40;99416.66;;;6.88;98.19
60337;BME280;46978;50.288;28.624;2023-01-01T05:43:43;99414.97;;;6.85;98.28
60337;BME280;46978;50.288;28.624;2023-01-01T05:44:45;99412.39;;;6.87;98.45
60337;BME280;46978;50.288;28.624;2023-01-01T05:45:46;99417.55;;;6.85;98.37
60337;BME280;46978;50.288;28.624;2023-01-01T05:46:48;99413.24;;;6.84;98.53
60337;BME280;46978;50.288;28.624;2023-01-01T05:47:50;99418.40;;;6.84;98.45
60337;BME280;46978;50.288;28.624;2023-01-01T05:48:52;99418.40;;;6.84;98.66
60337;BME280;46978;50.288;28.624;2023-01-01T05:49:54;99420.13;;;6.85;98.61
60337;BME280;46978;50.288;28.624;2023-01-01T05:51:11;99422.70;;;6.85;98.81
60337;BME280;46978;50.288;28.624;2023-01-01T05:52:13;99414.97;;;6.85;98.88
60337;BME280;46978;50.288;28.624;2023-01-01T05:53:14;99409.80;;;6.87;98.91
60337;BME280;46978;50.288;28.624;2023-01-01T05:54:16;99409.81;;;6.85;98.69
60337;BME280;46978;50.288;28.624;2023-01-01T05:55:18;99408.92;;;6.86;98.56
60337;BME280;46978;50.288;28.624;2023-01-01T05:56:20;99420.13;;;6.85;98.56
60337;BME280;46978;50.288;28.624;2023-01-01T05:57:22;99411.50;;;6.86;98.65
60337;BME280;46978;50.288;28.624;2023-01-01T05:58:25;99414.97;;;6.85;98.62
60337;BME280;46978;50.288;28.624;2023-01-01T05:59:26;99416.66;;;6.86;98.60
60337;BME280;46978;50.288;28.624;2023-01-01T06:00:28;99413.23;;;6.87;98.67
60337;BME280;46978;50.288;28.624;2023-01-01T06:01:30;99410.66;;;6.87;98.77
60337;BME280;46978;50.288;28.624;2023-01-01T06:02:32;99408.92;;;6.88;98.61
60337;BME280;46978;50.288;28.624;2023-01-01T06:03:34;99408.92;;;6.88;98.54
60337;BME280;46978;50.288;28.624;2023-01-01T06:04:36;99408.08;;;6.87;98.49
60337;BME280;46978;50.288;28.624;2023-01-01T06:05:37;99411.50;;;6.88;98.59
60337;BME280;46978;50.288;28.624;2023-01-01T06:06:39;99407.22;;;6.88;98.51
60337;BME280;46978;50.288;28.624;2023-01-01T06:07:41;99408.08;;;6.87;98.63